sensor_id;sensor_type;location;lat;lon;timestamp;pressure;altitude;pressure_sealevel;temperature;humidity
45357;BME280;31092;51.924;21.448;2023-03-02T00:01:08;101158.31;;;-4.13;100.00
45357;BME280;31092;51.924;21.448;2023-03-02T00:03:36;101158.28;;;-4.12;100.00
45357;BME280;31092;51.924;21.448;2023-03-02T00:06:04;101112.75;;;-4.42;100.00
45357;BME280;31092;51.924;21.448;2023-03-02T00:08:32;101134.53;;;-4.37;100.00
45357;BME280;31092;51.924;21.448;2023-03-02T00:10:59;101142.06;;;-4.26;100.00
45357;BME280;31092;51.924;21.448;2023-03-02T00:13:27;101177.47;;;-4.10;100.00
45357;BME280;31092;51.924;21.448;2023-03-02T00:15:53;101163.78;;;-4.19;100.00
45357;BME280;31092;51.924;21.448;2023-03-02T00:18:18;101136.94;;;-4.30;100.00
45357;BME280;31092;51.924;21.448;2023-03-02T00:20:44;101175.06;;;-4.16;100.00
45357;BME280;31092;51.924;21.448;2023-03-02T00:23:10;101048.81;;;-4.97;100.00
45357;BME280;31092;51.924;21.448;2023-03-02T00:25:35;101049.66;;;-4.96;100.00
45357;BME280;31092;51.924;21.448;2023-03-02T00:28:01;101171.88;;;-4.25;100.00
45357;BME280;31092;51.924;21.448;2023-03-02T00:30:26;101155.34;;;-4.30;100.00
45357;BME280;31092;51.924;21.448;2023-03-02T00:32:52;101136.44;;;-4.42;100.00
45357;BME280;31092;51.924;21.448;2023-03-02T00:35:17;101163.13;;;-4.26;100.00
45357;BME280;31092;51.924;21.448;2023-03-02T00:37:43;101129.72;;;-4.52;100.00
45357;BME280;31092;51.924;21.448;2023-03-02T00:40:09;101095.44;;;-4.75;100.00
45357;BME280;31092;51.924;21.448;2023-03-02T00:42:38;101086.19;;;-4.89;100.00
45357;BME280;31092;51.924;21.448;2023-03-02T00:45:05;101081.78;;;-4.87;100.00
45357;BME280;31092;51.924;21.448;2023-03-02T00:47:35;101161.38;;;-4.27;100.00
45357;BME280;31092;51.924;21.448;2023-03-02T00:50:01;101086.47;;;-4.70;100.00
45357;BME280;31092;51.924;21.448;2023-03-02T00:52:31;101041.44;;;-4.86;100.00
45357;BME280;31092;51.924;21.448;2023-03-02T00:54:56;101045.66;;;-4.80;100.00
45357;BME280;31092;51.924;21.448;2023-03-02T00:57:22;101167.97;;;-4.14;100.00
45357;BME280;31092;51.924;21.448;2023-03-02T00:59:48;101138.94;;;-4.37;100.00
45357;BME280;31092;51.924;21.448;2023-03-02T01:02:13;101155.13;;;-4.23;100.00
45357;BME280;31092;51.924;21.448;2023-03-02T01:04:41;101034.13;;;-5.04;100.00
45357;BME280;31092;51.924;21.448;2023-03-02T01:07:10;101030.84;;;-5.11;100.00
45357;BME280;31092;51.924;21.448;2023-03-02T01:09:37;101049.06;;;-5.06;100.00
45357;BME280;31092;51.924;21.448;2023-03-02T01:12:03;101144.47;;;-4.46;100.00
45357;BME280;31092;51.924;21.448;2023-03-02T01:14:30;101025.00;;;-5.20;100.00
45357;BME280;31092;51.924;21.448;2023-03-02T01:16:55;101111.91;;;-4.70;100.00
45357;BME280;31092;51.924;21.448;2023-03-02T01:19:21;101075.66;;;-4.87;100.00
45357;BME280;31092;51.924;21.448;2023-03-02T01:21:48;101029.88;;;-5.08;100.00
45357;BME280;31092;51.924;21.448;2023-03-02T01:24:14;101113.25;;;-4.57;100.00
45357;BME280;31092;51.924;21.448;2023-03-02T01:26:39;101119.28;;;-4.53;100.00
45357;BME280;31092;51.924;21.448;2023-03-02T01:29:05;101112.25;;;-4.53;100.00
45357;BME280;31092;51.924;21.448;2023-03-02T01:31:31;101117.47;;;-4.51;100.00
45357;BME280;31092;51.924;21.448;2023-03-02T01:33:56;101111.44;;;-4.55;100.00
45357;BME280;31092;51.924;21.448;2023-03-02T01:36:22;101115.03;;;-4.58;100.00
45357;BME280;31092;51.924;21.448;2023-03-02T01:38:48;101089.50;;;-4.82;100.00
45357;BME280;31092;51.924;21.448;2023-03-02T01:41:14;101114.69;;;-4.75;100.00
45357;BME280;31092;51.924;21.448;2023-03-02T01:43:39;100977.13;;;-5.58;100.00
45357;BME280;31092;51.924;21.448;2023-03-02T01:46:13;101112.22;;;-4.79;100.00
45357;BME280;31092;51.924;21.448;2023-03-02T01:51:18;101059.97;;;-5.18;100.00
45357;BME280;31092;51.924;21.448;2023-03-02T01:53:45;101107.53;;;-4.99;100.00
45357;BME280;31092;51.924;21.448;2023-03-02T01:56:17;101042.78;;;-5.30;100.00
45357;BME280;31092;51.924;21.448;2023-03-02T01:58:47;101081.56;;;-5.09;100.00
45357;BME280;31092;51.924;21.448;2023-03-02T02:01:15;100968.75;;;-5.71;100.00
45357;BME280;31092;51.924;21.448;2023-03-02T02:03:47;101087.72;;;-5.10;100.00
45357;BME280;31092;51.924;21.448;2023-03-02T02:06:25;101073.72;;;-5.10;100.00
45357;BME280;31092;51.924;21.448;2023-03-02T02:08:53;101091.00;;;-5.01;100.00
45357;BME280;31092;51.924;21.448;2023-03-02T02:11:20;101090.84;;;-4.97;100.00
45357;BME280;31092;51.924;21.448;2023-03-02T02:13:46;101094.16;;;-4.92;100.00
45357;BME280;31092;51.924;21.448;2023-03-02T02:16:12;101083.09;;;-5.01;100.00
45357;BME280;31092;51.924;21.448;2023-03-02T02:18:39;100976.47;;;-5.65;100.00
45357;BME280;31092;51.924;21.448;2023-03-02T02:21:06;101097.97;;;-5.02;100.00
45357;BME280;31092;51.924;21.448;2023-03-02T02:23:44;101053.13;;;-5.24;100.00
45357;BME280;31092;51.924;21.448;2023-03-02T02:26:38;101105.69;;;-4.96;100.00
45357;BME280;31092;51.924;21.448;2023-03-02T02:29:16;100980.84;;;-5.65;100.00
45357;BME280;31092;51.924;21.448;2023-03-02T02:32:20;101131.09;;;-4.96;100.00
45357;BME280;31092;51.924;21.448;2023-03-02T02:35:01;100993.22;;;-5.70;100.00
45357;BME280;31092;51.924;21.448;2023-03-02T02:37:37;101113.28;;;-5.16;100.00
45357;BME280;31092;51.924;21.448;2023-03-02T02:40:05;101095.31;;;-5.30;100.00
45357;BME280;31092;51.924;21.448;2023-03-02T02:42:38;100995.31;;;-5.82;100.00
45357;BME280;31092;51.924;21.448;2023-03-02T02:45:18;100919.50;;;-6.20;100.00
45357;BME280;31092;51.924;21.448;2023-03-02T02:47:44;101099.75;;;-5.02;100.00
45357;BME280;31092;51.924;21.448;2023-03-02T02:50:19;101105.41;;;-4.87;100.00
45357;BME280;31092;51.924;21.448;2023-03-02T02:52:59;101076.38;;;-4.82;100.00
45357;BME280;31092;51.924;21.448;2023-03-02T02:55:27;101099.34;;;-4.61;100.00
45357;BME280;31092;51.924;21.448;2023-03-02T02:57:56;100990.56;;;-5.11;100.00
45357;BME280;31092;51.924;21.448;2023-03-02T03:00:23;101022.88;;;-4.81;100.00
45357;BME280;31092;51.924;21.448;2023-03-02T03:02:59;100945.78;;;-5.07;100.00
45357;BME280;31092;51.924;21.448;2023-03-02T03:05:27;100994.00;;;-4.54;100.00
45357;BME280;31092;51.924;21.448;2023-03-02T03:08:08;100985.66;;;-4.41;100.00
45357;BME280;31092;51.924;21.448;2023-03-02T03:10:35;100987.19;;;-4.35;100.00
45357;BME280;31092;51.924;21.448;2023-03-02T03:13:08;101086.38;;;-3.62;100.00
45357;BME280;31092;51.924;21.448;2023-03-02T03:15:35;101069.34;;;-3.52;100.00
45357;BME280;31092;51.924;21.448;2023-03-02T03:18:00;100964.03;;;-4.00;100.00
45357;BME280;31092;51.924;21.448;2023-03-02T03:20:27;101093.41;;;-2.92;100.00
45357;BME280;31092;51.924;21.448;2023-03-02T03:22:52;101031.63;;;-3.07;100.00
45357;BME280;31092;51.924;21.448;2023-03-02T03:25:19;100948.34;;;-3.33;100.00
45357;BME280;31092;51.924;21.448;2023-03-02T03:27:45;101090.19;;;-2.33;100.00
45357;BME280;31092;51.924;21.448;2023-03-02T03:30:12;100970.03;;;-2.82;100.00
45357;BME280;31092;51.924;21.448;2023-03-02T03:32:39;101054.63;;;-2.24;100.00
45357;BME280;31092;51.924;21.448;2023-03-02T03:35:06;101063.25;;;-2.19;100.00
45357;BME280;31092;51.924;21.448;2023-03-02T03:37:39;101050.25;;;-2.24;100.00
45357;BME280;31092;51.924;21.448;2023-03-02T03:40:05;101043.34;;;-2.28;100.00
45357;BME280;31092;51.924;21.448;2023-03-02T03:42:34;100975.72;;;-2.71;100.00
45357;BME280;31092;51.924;21.448;2023-03-02T03:44:59;101043.34;;;-2.28;100.00
45357;BME280;31092;51.924;21.448;2023-03-02T03:47:25;100978.22;;;-2.68;100.00
45357;BME280;31092;51.924;21.448;2023-03-02T03:49:52;101069.25;;;-2.15;100.00
45357;BME280;31092;51.924;21.448;2023-03-02T03:52:17;101047.41;;;-2.19;100.00
45357;BME280;31092;51.924;21.448;2023-03-02T03:54:42;101048.19;;;-2.17;100.00
45357;BME280;31092;51.924;21.448;2023-03-02T03:57:08;100940.91;;;-2.79;100.00
45357;BME280;31092;51.924;21.448;2023-03-02T03:59:36;101070.13;;;-1.95;100.00
45357;BME280;31092;51.924;21.448;2023-03-02T04:02:01;100981.63;;;-2.44;100.00
45357;BME280;31092;51.924;21.448;2023-03-02T04:04:30;101026.03;;;-2.13;100.00
45357;BME280;31092;51.924;21.448;2023-03-02T04:07:00;101055.88;;;-1.90;100.00
45357;BME280;31092;51.924;21.448;2023-03-02T04:09:26;101059.16;;;-1.85;100.00
45357;BME280;31092;51.924;21.448;2023-03-02T04:11:53;100893.53;;;-2.81;100.00
45357;BME280;31092;51.924;21.448;2023-03-02T04:14:20;101004.00;;;-2.12;100.00
45357;BME280;31092;51.924;21.448;2023-03-02T04:16:46;101067.28;;;-1.70;100.00
45357;BME280;31092;51.924;21.448;2023-03-02T04:19:12;101063.69;;;-1.69;100.00
45357;BME280;31092;51.924;21.448;2023-03-02T04:21:43;101066.00;;;-1.61;100.00
45357;BME280;31092;51.924;21.448;2023-03-02T04:24:10;101062.97;;;-1.52;100.00
45357;BME280;31092;51.924;21.448;2023-03-02T04:26:37;101046.31;;;-1.54;100.00
45357;BME280;31092;51.924;21.448;2023-03-02T04:29:03;101065.25;;;-1.44;100.00
45357;BME280;31092;51.924;21.448;2023-03-02T04:31:29;100963.84;;;-2.00;100.00
45357;BME280;31092;51.924;21.448;2023-03-02T04:33:56;101004.03;;;-1.73;100.00
45357;BME280;31092;51.924;21.448;2023-03-02T04:36:21;101072.28;;;-1.24;100.00
45357;BME280;31092;51.924;21.448;2023-03-02T04:38:47;100992.53;;;-1.72;100.00
45357;BME280;31092;51.924;21.448;2023-03-02T04:41:13;101002.00;;;-1.67;100.00
45357;BME280;31092;51.924;21.448;2023-03-02T04:43:39;101082.28;;;-1.12;100.00
45357;BME280;31092;51.924;21.448;2023-03-02T04:46:04;101058.19;;;-1.25;100.00
45357;BME280;31092;51.924;21.448;2023-03-02T04:48:30;100941.03;;;-1.82;100.00
45357;BME280;31092;51.924;21.448;2023-03-02T04:50:56;101072.22;;;-1.04;100.00
45357;BME280;31092;51.924;21.448;2023-03-02T04:53:21;101058.56;;;-1.13;100.00
45357;BME280;31092;51.924;21.448;2023-03-02T04:55:47;100986.47;;;-1.55;100.00
45357;BME280;31092;51.924;21.448;2023-03-02T04:58:13;101034.97;;;-1.18;100.00
45357;BME280;31092;51.924;21.448;2023-03-02T05:00:39;101083.31;;;-0.95;100.00
45357;BME280;31092;51.924;21.448;2023-03-02T05:03:05;101041.91;;;-1.15;100.00
45357;BME280;31092;51.924;21.448;2023-03-02T05:05:31;101053.78;;;-1.05;100.00
45357;BME280;31092;51.924;21.448;2023-03-02T05:07:57;101074.53;;;-0.96;100.00
45357;BME280;31092;51.924;21.448;2023-03-02T05:10:23;101003.19;;;-1.35;100.00
45357;BME280;31092;51.924;21.448;2023-03-02T05:12:49;101001.63;;;-1.39;100.00
45357;BME280;31092;51.924;21.448;2023-03-02T05:15:38;101082.22;;;-0.91;100.00
45357;BME280;31092;51.924;21.448;2023-03-02T05:18:06;101067.06;;;-0.88;100.00
45357;BME280;31092;51.924;21.448;2023-03-02T05:20:32;100982.41;;;-1.43;100.00
45357;BME280;31092;51.924;21.448;2023-03-02T05:23:04;100994.50;;;-1.37;100.00
45357;BME280;31092;51.924;21.448;2023-03-02T05:25:32;101074.22;;;-0.90;100.00
45357;BME280;31092;51.924;21.448;2023-03-02T05:27:58;100986.56;;;-1.37;100.00
45357;BME280;31092;51.924;21.448;2023-03-02T05:30:24;101050.78;;;-0.98;100.00
45357;BME280;31092;51.924;21.448;2023-03-02T05:32:50;101000.22;;;-1.28;100.00
45357;BME280;31092;51.924;21.448;2023-03-02T05:35:17;101096.22;;;-0.70;100.00
45357;BME280;31092;51.924;21.448;2023-03-02T05:37:43;101079.69;;;-0.76;100.00
45357;BME280;31092;51.924;21.448;2023-03-02T05:40:15;101004.19;;;-1.19;100.00
45357;BME280;31092;51.924;21.448;2023-03-02T05:42:42;100989.13;;;-1.17;100.00
45357;BME280;31092;51.924;21.448;2023-03-02T05:45:12;100973.59;;;-1.25;100.00
45357;BME280;31092;51.924;21.448;2023-03-02T05:47:41;101072.28;;;-0.67;100.00
45357;BME280;31092;51.924;21.448;2023-03-02T05:50:07;101080.69;;;-0.59;100.00
45357;BME280;31092;51.924;21.448;2023-03-02T05:52:32;101000.06;;;-1.06;100.00
45357;BME280;31092;51.924;21.448;2023-03-02T05:54:58;100998.50;;;-1.10;100.00
45357;BME280;31092;51.924;21.448;2023-03-02T05:57:23;101097.91;;;-0.51;100.00
45357;BME280;31092;51.924;21.448;2023-03-02T05:59:49;101002.47;;;-1.01;100.00
45357;BME280;31092;51.924;21.448;2023-03-02T06:02:15;101110.41;;;-0.35;100.00
45357;BME280;31092;51.924;21.448;2023-03-02T06:04:41;100924.41;;;-1.46;100.00
45357;BME280;31092;51.924;21.448;2023-03-02T06:07:12;101043.53;;;-0.75;100.00
45357;BME280;31092;51.924;21.448;2023-03-02T06:09:38;101105.25;;;-0.38;100.00
45357;BME280;31092;51.924;21.448;2023-03-02T06:12:04;101093.97;;;-0.42;100.00
45357;BME280;31092;51.924;21.448;2023-03-02T06:14:30;101082.72;;;-0.47;100.00
45357;BME280;31092;51.924;21.448;2023-03-02T06:16:56;101096.25;;;-0.34;100.00
45357;BME280;31092;51.924;21.448;2023-03-02T06:19:21;101112.03;;;-0.33;100.00
45357;BME280;31092;51.924;21.448;2023-03-02T06:21:47;101089.38;;;-0.38;100.00
45357;BME280;31092;51.924;21.448;2023-03-02T06:24:12;101102.94;;;-0.27;100.00
45357;BME280;31092;51.924;21.448;2023-03-02T06:26:38;101027.44;;;-0.70;100.00
45357;BME280;31092;51.924;21.448;2023-03-02T06:29:03;101031.88;;;-0.71;100.00
45357;BME280;31092;51.924;21.448;2023-03-02T06:31:30;101127.91;;;-0.14;100.00
45357;BME280;31092;51.924;21.448;2023-03-02T06:34:01;101108.72;;;-0.19;100.00
45357;BME280;31092;51.924;21.448;2023-03-02T06:36:29;101126.81;;;-0.10;100.00
45357;BME280;31092;51.924;21.448;2023-03-02T06:38:54;101136.31;;;-0.06;100.00
45357;BME280;31092;51.924;21.448;2023-03-02T06:41:20;101106.06;;;-0.19;100.00
45357;BME280;31092;51.924;21.448;2023-03-02T06:43:46;101043.66;;;-0.59;100.00
45357;BME280;31092;51.924;21.448;2023-03-02T06:46:11;101130.31;;;-0.09;100.00
45357;BME280;31092;51.924;21.448;2023-03-02T06:48:37;101121.66;;;-0.13;100.00
45357;BME280;31092;51.924;21.448;2023-03-02T06:51:03;101107.06;;;-0.21;100.00
45357;BME280;31092;51.924;21.448;2023-03-02T06:53:28;101039.34;;;-0.62;100.00
45357;BME280;31092;51.924;21.448;2023-03-02T06:55:54;101121.66;;;-0.13;100.00
45357;BME280;31092;51.924;21.448;2023-03-02T06:58:19;101047.28;;;-0.62;100.00
45357;BME280;31092;51.924;21.448;2023-03-02T07:00:45;101118.22;;;-0.15;100.00
45357;BME280;31092;51.924;21.448;2023-03-02T07:03:10;101046.44;;;-0.62;100.00
45357;BME280;31092;51.924;21.448;2023-03-02T07:05:36;101122.59;;;-0.14;100.00
45357;BME280;31092;51.924;21.448;2023-03-02T07:08:02;101139.81;;;-0.05;100.00
45357;BME280;31092;51.924;21.448;2023-03-02T07:10:27;101124.31;;;-0.13;100.00
45357;BME280;31092;51.924;21.448;2023-03-02T07:12:53;101034.44;;;-0.69;100.00
45357;BME280;31092;51.924;21.448;2023-03-02T07:15:19;101106.53;;;-0.28;100.00
45357;BME280;31092;51.924;21.448;2023-03-02T07:17:45;101143.31;;;-0.05;100.00
45357;BME280;31092;51.924;21.448;2023-03-02T07:20:13;101123.75;;;-0.19;100.00
45357;BME280;31092;51.924;21.448;2023-03-02T07:22:39;101142.69;;;-0.10;100.00
45357;BME280;31092;51.924;21.448;2023-03-02T07:25:05;101103.31;;;-0.35;100.00
45357;BME280;31092;51.924;21.448;2023-03-02T07:27:31;101129.41;;;-0.27;100.00
45357;BME280;31092;51.924;21.448;2023-03-02T07:29:57;101065.81;;;-0.62;100.00
45357;BME280;31092;51.924;21.448;2023-03-02T07:32:22;101138.78;;;-0.20;100.00
45357;BME280;31092;51.924;21.448;2023-03-02T07:34:48;101141.34;;;-0.18;100.00
45357;BME280;31092;51.924;21.448;2023-03-02T07:37:13;101044.31;;;-0.73;100.00
45357;BME280;31092;51.924;21.448;2023-03-02T07:39:39;101082.59;;;-0.44;100.00
45357;BME280;31092;51.924;21.448;2023-03-02T07:42:04;101061.19;;;-0.57;100.00
45357;BME280;31092;51.924;21.448;2023-03-02T07:44:33;101069.50;;;-0.47;100.00
45357;BME280;31092;51.924;21.448;2023-03-02T07:46:58;101149.78;;;-0.10;100.00
45357;BME280;31092;51.924;21.448;2023-03-02T07:49:24;101033.44;;;-0.67;100.00
45357;BME280;31092;51.924;21.448;2023-03-02T07:51:49;101129.97;;;-0.20;100.00
45357;BME280;31092;51.924;21.448;2023-03-02T07:54:15;101029.38;;;-0.74;100.00
45357;BME280;31092;51.924;21.448;2023-03-02T07:56:41;101127.00;;;-0.14;100.00
45357;BME280;31092;51.924;21.448;2023-03-02T07:59:06;101135.16;;;0.00;100.00
45357;BME280;31092;51.924;21.448;2023-03-02T08:01:32;101021.06;;;-0.66;100.00
45357;BME280;31092;51.924;21.448;2023-03-02T08:03:57;101140.47;;;0.00;100.00
45357;BME280;31092;51.924;21.448;2023-03-02T08:06:23;101136.63;;;0.06;100.00
45357;BME280;31092;51.924;21.448;2023-03-02T08:08:48;101109.75;;;-0.04;100.00
45357;BME280;31092;51.924;21.448;2023-03-02T08:11:16;101040.25;;;-0.44;100.00
45357;BME280;31092;51.924;21.448;2023-03-02T08:13:42;101087.53;;;-0.19;100.00
45357;BME280;31092;51.924;21.448;2023-03-02T08:16:09;101097.81;;;-0.13;100.00
45357;BME280;31092;51.924;21.448;2023-03-02T08:18:36;101080.22;;;-0.14;100.00
45357;BME280;31092;51.924;21.448;2023-03-02T08:21:02;101122.59;;;0.21;100.00
45357;BME280;31092;51.924;21.448;2023-03-02T08:23:28;101117.53;;;0.16;100.00
45357;BME280;31092;51.924;21.448;2023-03-02T08:25:54;101091.00;;;0.01;100.00
45357;BME280;31092;51.924;21.448;2023-03-02T08:28:20;101108.75;;;0.16;100.00
45357;BME280;31092;51.924;21.448;2023-03-02T08:30:57;101122.44;;;0.24;100.00
45357;BME280;31092;51.924;21.448;2023-03-02T08:33:23;101115.28;;;0.26;100.00
45357;BME280;31092;51.924;21.448;2023-03-02T08:35:59;100990.41;;;-0.36;100.00
45357;BME280;31092;51.924;21.448;2023-03-02T08:38:27;101040.50;;;0.04;100.00
45357;BME280;31092;51.924;21.448;2023-03-02T08:40:53;101002.03;;;-0.21;100.00
45357;BME280;31092;51.924;21.448;2023-03-02T08:43:19;101116.53;;;0.54;100.00
45357;BME280;31092;51.924;21.448;2023-03-02T08:45:52;101077.38;;;0.41;100.00
45357;BME280;31092;51.924;21.448;2023-03-02T08:48:20;101079.09;;;0.42;100.00
45357;BME280;31092;51.924;21.448;2023-03-02T08:51:06;101128.13;;;0.68;100.00
45357;BME280;31092;51.924;21.448;2023-03-02T08:53:34;101027.41;;;0.18;100.00
45357;BME280;31092;51.924;21.448;2023-03-02T08:56:00;101098.25;;;0.65;100.00
45357;BME280;31092;51.924;21.448;2023-03-02T08:58:26;101001.13;;;0.13;100.00
45357;BME280;31092;51.924;21.448;2023-03-02T09:00:52;101060.66;;;0.57;100.00
45357;BME280;31092;51.924;21.448;2023-03-02T09:03:17;101084.75;;;0.69;100.00
45357;BME280;31092;51.924;21.448;2023-03-02T09:05:43;101101.63;;;0.84;100.00
45357;BME280;31092;51.924;21.448;2023-03-02T09:08:08;101011.97;;;0.42;100.00
45357;BME280;31092;51.924;21.448;2023-03-02T09:10:34;101093.88;;;0.97;100.00
45357;BME280;31092;51.924;21.448;2023-03-02T09:13:00;101114.25;;;1.12;100.00
45357;BME280;31092;51.924;21.448;2023-03-02T09:15:26;101022.06;;;0.68;100.00
45357;BME280;31092;51.924;21.448;2023-03-02T09:17:51;101022.66;;;0.74;100.00
45357;BME280;31092;51.924;21.448;2023-03-02T09:20:17;101010.50;;;0.69;100.00
45357;BME280;31092;51.924;21.448;2023-03-02T09:22:42;101072.22;;;1.05;100.00
45357;BME280;31092;51.924;21.448;2023-03-02T09:25:14;101103.72;;;1.27;100.00
45357;BME280;31092;51.924;21.448;2023-03-02T09:27:40;101104.75;;;1.24;100.00
45357;BME280;31092;51.924;21.448;2023-03-02T09:30:07;101073.00;;;1.23;100.00
45357;BME280;31092;51.924;21.448;2023-03-02T09:32:33;101077.44;;;1.22;100.00
45357;BME280;31092;51.924;21.448;2023-03-02T09:34:58;101096.28;;;1.33;100.00
45357;BME280;31092;51.924;21.448;2023-03-02T09:37:24;101019.50;;;0.99;100.00
45357;BME280;31092;51.924;21.448;2023-03-02T09:39:50;101005.47;;;0.97;100.00
45357;BME280;31092;51.924;21.448;2023-03-02T09:42:27;101083.94;;;1.48;100.00
45357;BME280;31092;51.924;21.448;2023-03-02T09:45:02;101099.25;;;1.59;100.00
45357;BME280;31092;51.924;21.448;2023-03-02T09:48:04;101091.13;;;1.62;100.00
45357;BME280;31092;51.924;21.448;2023-03-02T09:50:45;101065.19;;;1.51;100.00
45357;BME280;31092;51.924;21.448;2023-03-02T09:55:53;101087.53;;;1.63;100.00
45357;BME280;31092;51.924;21.448;2023-03-02T09:58:20;101048.69;;;1.46;100.00
45357;BME280;31092;51.924;21.448;2023-03-02T10:00:50;101018.28;;;1.36;100.00
45357;BME280;31092;51.924;21.448;2023-03-02T10:03:21;101097.28;;;1.78;100.00
45357;BME280;31092;51.924;21.448;2023-03-02T10:05:50;100986.22;;;1.25;100.00
45357;BME280;31092;51.924;21.448;2023-03-02T10:08:20;100985.53;;;1.21;100.00
45357;BME280;31092;51.924;21.448;2023-03-02T10:16:37;101002.94;;;1.41;100.00
45357;BME280;31092;51.924;21.448;2023-03-02T10:19:17;100997.41;;;1.30;100.00
45357;BME280;31092;51.924;21.448;2023-03-02T10:21:55;101085.09;;;1.74;100.00
45357;BME280;31092;51.924;21.448;2023-03-02T10:27:04;101044.34;;;1.75;100.00
45357;BME280;31092;51.924;21.448;2023-03-02T10:29:44;101055.00;;;1.89;100.00
45357;BME280;31092;51.924;21.448;2023-03-02T10:32:25;101034.00;;;1.85;100.00
45357;BME280;31092;51.924;21.448;2023-03-02T10:34:52;100956.50;;;1.48;100.00
45357;BME280;31092;51.924;21.448;2023-03-02T10:37:20;101057.41;;;2.08;100.00
45357;BME280;31092;51.924;21.448;2023-03-02T10:39:50;100966.19;;;1.49;100.00
45357;BME280;31092;51.924;21.448;2023-03-02T10:42:31;101040.13;;;2.01;100.00
45357;BME280;31092;51.924;21.448;2023-03-02T10:45:10;101048.31;;;2.12;100.00
45357;BME280;31092;51.924;21.448;2023-03-02T10:47:39;100943.06;;;1.51;100.00
45357;BME280;31092;51.924;21.448;2023-03-02T10:50:20;100959.56;;;1.56;100.00
45357;BME280;31092;51.924;21.448;2023-03-02T10:52:48;101058.09;;;2.12;100.00
45357;BME280;31092;51.924;21.448;2023-03-02T10:55:15;100958.81;;;1.54;100.00
45357;BME280;31092;51.924;21.448;2023-03-02T10:57:45;100979.91;;;1.72;100.00
45357;BME280;31092;51.924;21.448;2023-03-02T11:02:54;101009.03;;;1.73;100.00
45357;BME280;31092;51.924;21.448;2023-03-02T11:05:26;101053.78;;;1.95;100.00
45357;BME280;31092;51.924;21.448;2023-03-02T11:07:53;101049.31;;;1.96;100.00
45357;BME280;31092;51.924;21.448;2023-03-02T11:10:22;100944.81;;;1.36;100.00
45357;BME280;31092;51.924;21.448;2023-03-02T11:12:50;100967.41;;;1.43;100.00
45357;BME280;31092;51.924;21.448;2023-03-02T11:15:33;101057.56;;;1.91;100.00
45357;BME280;31092;51.924;21.448;2023-03-02T11:20:35;100936.03;;;1.20;100.00
45357;BME280;31092;51.924;21.448;2023-03-02T11:23:25;101012.81;;;1.69;100.00
45357;BME280;31092;51.924;21.448;2023-03-02T11:26:01;100957.75;;;1.42;100.00
45357;BME280;31092;51.924;21.448;2023-03-02T11:31:25;101035.34;;;1.92;100.00
45357;BME280;31092;51.924;21.448;2023-03-02T11:36:54;101031.81;;;2.07;100.00
45357;BME280;31092;51.924;21.448;2023-03-02T11:39:31;100949.72;;;1.58;100.00
45357;BME280;31092;51.924;21.448;2023-03-02T11:42:01;100960.34;;;1.58;100.00
45357;BME280;31092;51.924;21.448;2023-03-02T11:44:26;100981.13;;;1.66;100.00
45357;BME280;31092;51.924;21.448;2023-03-02T11:46:59;100921.88;;;1.35;100.00
45357;BME280;31092;51.924;21.448;2023-03-02T11:49:35;101023.81;;;1.93;100.00
45357;BME280;31092;51.924;21.448;2023-03-02T11:52:02;100924.72;;;1.32;100.00
45357;BME280;31092;51.924;21.448;2023-03-02T11:54:41;100938.06;;;1.31;100.00
45357;BME280;31092;51.924;21.448;2023-03-02T11:57:24;101043.31;;;1.92;100.00
45357;BME280;31092;51.924;21.448;2023-03-02T12:00:13;100951.47;;;1.43;100.00
45357;BME280;31092;51.924;21.448;2023-03-02T12:02:39;101024.44;;;1.82;100.00
45357;BME280;31092;51.924;21.448;2023-03-02T12:05:23;101027.66;;;1.87;100.00
45357;BME280;31092;51.924;21.448;2023-03-02T12:08:00;100949.53;;;1.31;100.00
45357;BME280;31092;51.924;21.448;2023-03-02T12:10:37;100924.56;;;1.19;100.00
45357;BME280;31092;51.924;21.448;2023-03-02T12:13:17;100994.84;;;1.58;100.00
45357;BME280;31092;51.924;21.448;2023-03-02T12:15:47;101013.88;;;1.81;100.00
45357;BME280;31092;51.924;21.448;2023-03-02T12:20:45;101006.19;;;1.76;100.00
45357;BME280;31092;51.924;21.448;2023-03-02T12:23:23;100937.72;;;1.37;100.00
45357;BME280;31092;51.924;21.448;2023-03-02T12:26:00;100923.38;;;1.25;100.00
45357;BME280;31092;51.924;21.448;2023-03-02T12:28:31;100895.47;;;1.18;100.00
45357;BME280;31092;51.924;21.448;2023-03-02T12:31:04;100980.84;;;1.71;100.00
45357;BME280;31092;51.924;21.448;2023-03-02T12:33:30;100973.94;;;1.68;100.00
45357;BME280;31092;51.924;21.448;2023-03-02T12:36:09;100936.69;;;1.39;100.00
45357;BME280;31092;51.924;21.448;2023-03-02T12:38:37;100900.63;;;1.21;100.00
45357;BME280;31092;51.924;21.448;2023-03-02T12:43:43;100897.56;;;1.27;100.00
45357;BME280;31092;51.924;21.448;2023-03-02T12:51:58;100970.56;;;1.95;100.00
45357;BME280;31092;51.924;21.448;2023-03-02T12:54:27;100892.72;;;1.50;100.00
45357;BME280;31092;51.924;21.448;2023-03-02T12:59:37;100895.47;;;1.62;100.00
45357;BME280;31092;51.924;21.448;2023-03-02T13:02:12;100985.97;;;2.18;100.00
45357;BME280;31092;51.924;21.448;2023-03-02T13:04:38;100956.91;;;2.01;100.00
45357;BME280;31092;51.924;21.448;2023-03-02T13:07:04;100960.72;;;2.11;100.00
45357;BME280;31092;51.924;21.448;2023-03-02T13:09:30;100932.63;;;1.92;100.00
45357;BME280;31092;51.924;21.448;2023-03-02T13:11:55;100875.84;;;1.65;100.00
45357;BME280;31092;51.924;21.448;2023-03-02T13:14:26;100962.91;;;2.19;100.00
45357;BME280;31092;51.924;21.448;2023-03-02T13:17:00;100913.34;;;1.89;100.00
45357;BME280;31092;51.924;21.448;2023-03-02T13:19:29;100873.69;;;1.72;100.00